sensor_id;sensor_type;location;lat;lon;timestamp;P1;durP1;ratioP1;P2;durP2;ratioP2
65092;SDS011;52025;50.288;2.794;2023-08-06T00:00:53;3.05;;;0.90;;
65092;SDS011;52025;50.288;2.794;2023-08-06T00:03:19;5.30;;;1.05;;
65092;SDS011;52025;50.288;2.794;2023-08-06T00:05:45;6.25;;;1.13;;
65092;SDS011;52025;50.288;2.794;2023-08-06T00:08:10;2.53;;;0.70;;
65092;SDS011;52025;50.288;2.794;2023-08-06T00:10:36;6.88;;;1.30;;
65092;SDS011;52025;50.288;2.794;2023-08-06T00:13:03;3.38;;;0.77;;
65092;SDS011;52025;50.288;2.794;2023-08-06T00:15:31;2.70;;;0.90;;
65092;SDS011;52025;50.288;2.794;2023-08-06T00:17:58;3.85;;;0.85;;
65092;SDS011;52025;50.288;2.794;2023-08-06T00:20:24;3.85;;;0.73;;
65092;SDS011;52025;50.288;2.794;2023-08-06T00:22:49;10.07;;;1.20;;
65092;SDS011;52025;50.288;2.794;2023-08-06T00:25:17;4.18;;;1.10;;
65092;SDS011;52025;50.288;2.794;2023-08-06T00:27:42;5.82;;;0.90;;
65092;SDS011;52025;50.288;2.794;2023-08-06T00:30:07;1.45;;;0.63;;
65092;SDS011;52025;50.288;2.794;2023-08-06T00:32:33;3.67;;;0.80;;
65092;SDS011;52025;50.288;2.794;2023-08-06T00:34:58;4.60;;;1.35;;
65092;SDS011;52025;50.288;2.794;2023-08-06T00:37:23;2.53;;;0.63;;
65092;SDS011;52025;50.288;2.794;2023-08-06T00:39:51;2.65;;;0.60;;
65092;SDS011;52025;50.288;2.794;2023-08-06T00:42:17;2.95;;;0.50;;
65092;SDS011;52025;50.288;2.794;2023-08-06T00:44:48;2.25;;;0.80;;
65092;SDS011;52025;50.288;2.794;2023-08-06T00:47:14;1.08;;;0.57;;
65092;SDS011;52025;50.288;2.794;2023-08-06T00:49:39;1.90;;;0.52;;
65092;SDS011;52025;50.288;2.794;2023-08-06T00:52:05;1.25;;;0.60;;
65092;SDS011;52025;50.288;2.794;2023-08-06T00:54:31;3.72;;;1.15;;
65092;SDS011;52025;50.288;2.794;2023-08-06T00:56:57;1.58;;;0.80;;
65092;SDS011;52025;50.288;2.794;2023-08-06T00:59:24;1.73;;;0.65;;
65092;SDS011;52025;50.288;2.794;2023-08-06T01:01:49;2.80;;;0.63;;
65092;SDS011;52025;50.288;2.794;2023-08-06T01:04:15;2.88;;;0.70;;
65092;SDS011;52025;50.288;2.794;2023-08-06T01:06:45;3.63;;;0.98;;
65092;SDS011;52025;50.288;2.794;2023-08-06T01:13:04;5.25;;;1.15;;
65092;SDS011;52025;50.288;2.794;2023-08-06T01:17:27;3.78;;;0.93;;
65092;SDS011;52025;50.288;2.794;2023-08-06T01:19:52;5.40;;;1.15;;
65092;SDS011;52025;50.288;2.794;2023-08-06T01:22:20;6.43;;;1.35;;
65092;SDS011;52025;50.288;2.794;2023-08-06T01:24:46;3.70;;;1.10;;
65092;SDS011;52025;50.288;2.794;2023-08-06T01:27:23;7.28;;;2.17;;
65092;SDS011;52025;50.288;2.794;2023-08-06T01:32:21;5.82;;;1.52;;
65092;SDS011;52025;50.288;2.794;2023-08-06T01:34:46;3.85;;;1.00;;
65092;SDS011;52025;50.288;2.794;2023-08-06T01:37:17;4.72;;;1.20;;
65092;SDS011;52025;50.288;2.794;2023-08-06T01:39:42;6.85;;;1.60;;
65092;SDS011;52025;50.288;2.794;2023-08-06T01:42:08;5.63;;;1.20;;
65092;SDS011;52025;50.288;2.794;2023-08-06T01:44:34;5.88;;;1.33;;
65092;SDS011;52025;50.288;2.794;2023-08-06T01:46:59;7.55;;;1.45;;
65092;SDS011;52025;50.288;2.794;2023-08-06T01:49:24;6.13;;;1.25;;
65092;SDS011;52025;50.288;2.794;2023-08-06T01:51:52;4.07;;;1.45;;
65092;SDS011;52025;50.288;2.794;2023-08-06T01:54:17;5.55;;;1.40;;
65092;SDS011;52025;50.288;2.794;2023-08-06T01:56:42;5.80;;;1.35;;
65092;SDS011;52025;50.288;2.794;2023-08-06T01:59:08;4.35;;;1.67;;
65092;SDS011;52025;50.288;2.794;2023-08-06T02:01:33;3.85;;;1.25;;
65092;SDS011;52025;50.288;2.794;2023-08-06T02:03:58;6.93;;;1.70;;
65092;SDS011;52025;50.288;2.794;2023-08-06T02:06:26;3.20;;;1.10;;
65092;SDS011;52025;50.288;2.794;2023-08-06T02:08:55;4.35;;;1.33;;
65092;SDS011;52025;50.288;2.794;2023-08-06T02:11:20;7.05;;;1.75;;
65092;SDS011;52025;50.288;2.794;2023-08-06T02:13:48;5.22;;;1.60;;
65092;SDS011;52025;50.288;2.794;2023-08-06T02:16:13;6.70;;;1.58;;
65092;SDS011;52025;50.288;2.794;2023-08-06T02:18:38;2.83;;;1.17;;
65092;SDS011;52025;50.288;2.794;2023-08-06T02:21:04;3.22;;;1.17;;
65092;SDS011;52025;50.288;2.794;2023-08-06T02:23:31;4.05;;;1.55;;
65092;SDS011;52025;50.288;2.794;2023-08-06T02:26:00;3.75;;;1.35;;
65092;SDS011;52025;50.288;2.794;2023-08-06T02:28:29;3.05;;;1.27;;
65092;SDS011;52025;50.288;2.794;2023-08-06T02:30:55;4.50;;;1.60;;
65092;SDS011;52025;50.288;2.794;2023-08-06T02:33:20;6.80;;;1.88;;
65092;SDS011;52025;50.288;2.794;2023-08-06T02:35:46;6.85;;;2.05;;
65092;SDS011;52025;50.288;2.794;2023-08-06T02:38:11;6.32;;;1.73;;
65092;SDS011;52025;50.288;2.794;2023-08-06T02:40:36;4.18;;;1.50;;
65092;SDS011;52025;50.288;2.794;2023-08-06T02:43:02;6.68;;;2.05;;
65092;SDS011;52025;50.288;2.794;2023-08-06T02:45:28;6.30;;;2.13;;
65092;SDS011;52025;50.288;2.794;2023-08-06T02:47:53;4.15;;;1.77;;
65092;SDS011;52025;50.288;2.794;2023-08-06T02:50:19;6.22;;;2.28;;
65092;SDS011;52025;50.288;2.794;2023-08-06T02:52:46;6.10;;;2.10;;
65092;SDS011;52025;50.288;2.794;2023-08-06T02:55:15;9.93;;;2.58;;
65092;SDS011;52025;50.288;2.794;2023-08-06T02:57:40;7.28;;;2.40;;
65092;SDS011;52025;50.288;2.794;2023-08-06T03:00:06;10.52;;;2.90;;
65092;SDS011;52025;50.288;2.794;2023-08-06T03:02:31;7.82;;;2.65;;
65092;SDS011;52025;50.288;2.794;2023-08-06T03:04:56;8.77;;;3.08;;
65092;SDS011;52025;50.288;2.794;2023-08-06T03:07:32;5.18;;;2.08;;
65092;SDS011;52025;50.288;2.794;2023-08-06T03:09:59;8.07;;;2.17;;
65092;SDS011;52025;50.288;2.794;2023-08-06T03:12:26;6.22;;;2.30;;
65092;SDS011;52025;50.288;2.794;2023-08-06T03:14:51;4.10;;;1.45;;
65092;SDS011;52025;50.288;2.794;2023-08-06T03:17:16;4.25;;;1.80;;
65092;SDS011;52025;50.288;2.794;2023-08-06T03:19:42;6.75;;;2.25;;
65092;SDS011;52025;50.288;2.794;2023-08-06T03:22:07;7.95;;;2.60;;
65092;SDS011;52025;50.288;2.794;2023-08-06T03:24:32;9.15;;;2.47;;
65092;SDS011;52025;50.288;2.794;2023-08-06T03:26:58;7.35;;;2.00;;
65092;SDS011;52025;50.288;2.794;2023-08-06T03:29:23;7.90;;;1.90;;
65092;SDS011;52025;50.288;2.794;2023-08-06T03:31:48;8.05;;;2.35;;
65092;SDS011;52025;50.288;2.794;2023-08-06T03:34:14;7.30;;;2.40;;
65092;SDS011;52025;50.288;2.794;2023-08-06T03:36:39;8.35;;;2.00;;
65092;SDS011;52025;50.288;2.794;2023-08-06T03:39:04;7.22;;;2.22;;
65092;SDS011;52025;50.288;2.794;2023-08-06T03:41:30;9.50;;;2.17;;
65092;SDS011;52025;50.288;2.794;2023-08-06T03:44:00;6.97;;;2.30;;
65092;SDS011;52025;50.288;2.794;2023-08-06T03:46:28;7.88;;;1.70;;
65092;SDS011;52025;50.288;2.794;2023-08-06T03:48:54;6.05;;;2.53;;
65092;SDS011;52025;50.288;2.794;2023-08-06T03:51:22;5.68;;;1.60;;
65092;SDS011;52025;50.288;2.794;2023-08-06T03:53:47;5.40;;;1.90;;
65092;SDS011;52025;50.288;2.794;2023-08-06T03:56:21;5.95;;;1.83;;
65092;SDS011;52025;50.288;2.794;2023-08-06T03:58:49;4.80;;;1.30;;
65092;SDS011;52025;50.288;2.794;2023-08-06T04:01:18;5.38;;;1.50;;
65092;SDS011;52025;50.288;2.794;2023-08-06T04:03:45;6.70;;;1.70;;
65092;SDS011;52025;50.288;2.794;2023-08-06T04:06:11;5.63;;;1.50;;
65092;SDS011;52025;50.288;2.794;2023-08-06T04:08:36;5.13;;;1.23;;
65092;SDS011;52025;50.288;2.794;2023-08-06T04:11:07;6.50;;;1.92;;
65092;SDS011;52025;50.288;2.794;2023-08-06T04:13:35;5.30;;;1.42;;
65092;SDS011;52025;50.288;2.794;2023-08-06T04:16:01;5.13;;;1.35;;
65092;SDS011;52025;50.288;2.794;2023-08-06T04:18:32;6.18;;;1.60;;
65092;SDS011;52025;50.288;2.794;2023-08-06T04:21:03;4.07;;;1.20;;
65092;SDS011;52025;50.288;2.794;2023-08-06T04:23:31;5.90;;;1.23;;
65092;SDS011;52025;50.288;2.794;2023-08-06T04:25:57;6.03;;;1.80;;
65092;SDS011;52025;50.288;2.794;2023-08-06T04:28:27;3.83;;;1.27;;
65092;SDS011;52025;50.288;2.794;2023-08-06T04:30:53;5.65;;;1.50;;
65092;SDS011;52025;50.288;2.794;2023-08-06T04:33:19;4.43;;;1.23;;
65092;SDS011;52025;50.288;2.794;2023-08-06T04:35:48;3.15;;;1.20;;
65092;SDS011;52025;50.288;2.794;2023-08-06T04:38:18;7.13;;;1.33;;
65092;SDS011;52025;50.288;2.794;2023-08-06T04:40:43;2.97;;;1.10;;
65092;SDS011;52025;50.288;2.794;2023-08-06T04:43:11;6.00;;;1.30;;
65092;SDS011;52025;50.288;2.794;2023-08-06T04:45:37;5.68;;;1.23;;
65092;SDS011;52025;50.288;2.794;2023-08-06T04:48:02;2.67;;;0.90;;
65092;SDS011;52025;50.288;2.794;2023-08-06T04:50:30;3.65;;;1.13;;
65092;SDS011;52025;50.288;2.794;2023-08-06T04:52:57;4.18;;;1.08;;
65092;SDS011;52025;50.288;2.794;2023-08-06T04:55:23;3.63;;;1.20;;
65092;SDS011;52025;50.288;2.794;2023-08-06T04:57:48;6.07;;;1.30;;
65092;SDS011;52025;50.288;2.794;2023-08-06T05:00:13;3.22;;;0.90;;
65092;SDS011;52025;50.288;2.794;2023-08-06T05:02:39;5.20;;;1.45;;
65092;SDS011;52025;50.288;2.794;2023-08-06T05:05:04;6.82;;;1.25;;
65092;SDS011;52025;50.288;2.794;2023-08-06T05:07:32;4.18;;;1.30;;
65092;SDS011;52025;50.288;2.794;2023-08-06T05:09:57;3.63;;;0.95;;
65092;SDS011;52025;50.288;2.794;2023-08-06T05:12:23;3.30;;;1.30;;
65092;SDS011;52025;50.288;2.794;2023-08-06T05:14:53;3.63;;;1.20;;
65092;SDS011;52025;50.288;2.794;2023-08-06T05:17:21;5.93;;;1.45;;
65092;SDS011;52025;50.288;2.794;2023-08-06T05:19:48;6.75;;;1.88;;
65092;SDS011;52025;50.288;2.794;2023-08-06T05:22:13;8.05;;;1.90;;
65092;SDS011;52025;50.288;2.794;2023-08-06T05:24:41;7.05;;;2.17;;
65092;SDS011;52025;50.288;2.794;2023-08-06T05:27:06;4.65;;;1.27;;
65092;SDS011;52025;50.288;2.794;2023-08-06T05:29:32;7.40;;;1.17;;
65092;SDS011;52025;50.288;2.794;2023-08-06T05:31:57;7.00;;;1.30;;
65092;SDS011;52025;50.288;2.794;2023-08-06T05:34:23;4.90;;;1.40;;
65092;SDS011;52025;50.288;2.794;2023-08-06T05:36:48;4.25;;;1.48;;
65092;SDS011;52025;50.288;2.794;2023-08-06T05:39:20;4.88;;;1.30;;
65092;SDS011;52025;50.288;2.794;2023-08-06T05:41:45;6.85;;;1.40;;
65092;SDS011;52025;50.288;2.794;2023-08-06T05:44:11;2.78;;;1.20;;
65092;SDS011;52025;50.288;2.794;2023-08-06T05:46:36;7.63;;;1.42;;
65092;SDS011;52025;50.288;2.794;2023-08-06T05:49:04;5.30;;;1.75;;
65092;SDS011;52025;50.288;2.794;2023-08-06T05:51:37;4.05;;;1.30;;
65092;SDS011;52025;50.288;2.794;2023-08-06T05:54:03;3.25;;;1.23;;
65092;SDS011;52025;50.288;2.794;2023-08-06T05:56:28;4.80;;;1.10;;
65092;SDS011;52025;50.288;2.794;2023-08-06T05:58:56;6.55;;;1.80;;
65092;SDS011;52025;50.288;2.794;2023-08-06T06:01:24;5.07;;;1.48;;
65092;SDS011;52025;50.288;2.794;2023-08-06T06:03:50;4.78;;;1.27;;
65092;SDS011;52025;50.288;2.794;2023-08-06T06:06:16;4.80;;;1.48;;
65092;SDS011;52025;50.288;2.794;2023-08-06T06:08:44;7.22;;;1.35;;
65092;SDS011;52025;50.288;2.794;2023-08-06T06:11:09;6.47;;;1.55;;
65092;SDS011;52025;50.288;2.794;2023-08-06T06:13:34;5.85;;;1.48;;
65092;SDS011;52025;50.288;2.794;2023-08-06T06:16:00;7.13;;;1.55;;
65092;SDS011;52025;50.288;2.794;2023-08-06T06:18:25;5.63;;;2.13;;
65092;SDS011;52025;50.288;2.794;2023-08-06T06:20:50;5.80;;;1.45;;
65092;SDS011;52025;50.288;2.794;2023-08-06T06:23:18;4.53;;;1.38;;
65092;SDS011;52025;50.288;2.794;2023-08-06T06:25:49;3.58;;;1.55;;
65092;SDS011;52025;50.288;2.794;2023-08-06T06:28:18;5.10;;;1.60;;
65092;SDS011;52025;50.288;2.794;2023-08-06T06:30:51;5.97;;;1.50;;
65092;SDS011;52025;50.288;2.794;2023-08-06T06:33:16;5.85;;;1.75;;
65092;SDS011;52025;50.288;2.794;2023-08-06T06:35:41;3.30;;;1.40;;
65092;SDS011;52025;50.288;2.794;2023-08-06T06:38:10;3.13;;;1.20;;
65092;SDS011;52025;50.288;2.794;2023-08-06T06:40:35;5.85;;;1.80;;
65092;SDS011;52025;50.288;2.794;2023-08-06T06:43:00;6.90;;;1.70;;
65092;SDS011;52025;50.288;2.794;2023-08-06T06:45:26;4.95;;;1.70;;
65092;SDS011;52025;50.288;2.794;2023-08-06T06:47:51;5.32;;;1.65;;
65092;SDS011;52025;50.288;2.794;2023-08-06T06:50:16;4.65;;;1.75;;
65092;SDS011;52025;50.288;2.794;2023-08-06T06:52:42;5.75;;;1.38;;
65092;SDS011;52025;50.288;2.794;2023-08-06T06:55:10;3.75;;;1.23;;
65092;SDS011;52025;50.288;2.794;2023-08-06T06:57:35;4.28;;;1.20;;
65092;SDS011;52025;50.288;2.794;2023-08-06T07:00:01;4.35;;;1.33;;
65092;SDS011;52025;50.288;2.794;2023-08-06T07:02:26;4.95;;;1.02;;
65092;SDS011;52025;50.288;2.794;2023-08-06T07:04:54;4.55;;;1.30;;
65092;SDS011;52025;50.288;2.794;2023-08-06T07:07:20;4.68;;;1.08;;
65092;SDS011;52025;50.288;2.794;2023-08-06T07:09:45;5.20;;;1.40;;
65092;SDS011;52025;50.288;2.794;2023-08-06T07:12:14;3.33;;;1.10;;
65092;SDS011;52025;50.288;2.794;2023-08-06T07:14:39;3.08;;;1.35;;
65092;SDS011;52025;50.288;2.794;2023-08-06T07:17:04;4.35;;;1.45;;
65092;SDS011;52025;50.288;2.794;2023-08-06T07:19:30;5.53;;;1.38;;
65092;SDS011;52025;50.288;2.794;2023-08-06T07:21:55;8.32;;;1.80;;
65092;SDS011;52025;50.288;2.794;2023-08-06T07:24:21;5.15;;;1.20;;
65092;SDS011;52025;50.288;2.794;2023-08-06T07:26:46;5.35;;;1.30;;
65092;SDS011;52025;50.288;2.794;2023-08-06T07:29:12;1.85;;;1.00;;
65092;SDS011;52025;50.288;2.794;2023-08-06T07:31:40;5.95;;;1.58;;
65092;SDS011;52025;50.288;2.794;2023-08-06T07:34:06;7.05;;;1.60;;
65092;SDS011;52025;50.288;2.794;2023-08-06T07:36:31;3.58;;;1.20;;
65092;SDS011;52025;50.288;2.794;2023-08-06T07:39:02;3.92;;;1.30;;
65092;SDS011;52025;50.288;2.794;2023-08-06T07:41:31;2.90;;;1.10;;
65092;SDS011;52025;50.288;2.794;2023-08-06T07:43:56;6.97;;;1.45;;
65092;SDS011;52025;50.288;2.794;2023-08-06T07:46:27;3.85;;;1.15;;
65092;SDS011;52025;50.288;2.794;2023-08-06T07:48:52;5.90;;;1.65;;
65092;SDS011;52025;50.288;2.794;2023-08-06T07:51:20;3.42;;;1.30;;
65092;SDS011;52025;50.288;2.794;2023-08-06T07:53:46;5.15;;;1.40;;
65092;SDS011;52025;50.288;2.794;2023-08-06T07:56:13;5.60;;;1.40;;
65092;SDS011;52025;50.288;2.794;2023-08-06T07:58:38;2.55;;;1.13;;
65092;SDS011;52025;50.288;2.794;2023-08-06T08:01:07;2.40;;;1.20;;
65092;SDS011;52025;50.288;2.794;2023-08-06T08:03:38;3.63;;;1.08;;
65092;SDS011;52025;50.288;2.794;2023-08-06T08:06:03;2.88;;;1.10;;
65092;SDS011;52025;50.288;2.794;2023-08-06T08:08:31;4.45;;;1.50;;
65092;SDS011;52025;50.288;2.794;2023-08-06T08:10:57;3.15;;;1.08;;
65092;SDS011;52025;50.288;2.794;2023-08-06T08:13:24;5.57;;;1.50;;
65092;SDS011;52025;50.288;2.794;2023-08-06T08:15:49;3.05;;;1.17;;
65092;SDS011;52025;50.288;2.794;2023-08-06T08:18:20;4.00;;;1.80;;
65092;SDS011;52025;50.288;2.794;2023-08-06T08:20:46;5.47;;;1.40;;
65092;SDS011;52025;50.288;2.794;2023-08-06T08:23:14;4.35;;;1.42;;
65092;SDS011;52025;50.288;2.794;2023-08-06T08:25:50;3.17;;;1.00;;
65092;SDS011;52025;50.288;2.794;2023-08-06T08:28:15;6.82;;;1.13;;
65092;SDS011;52025;50.288;2.794;2023-08-06T08:30:43;3.25;;;1.35;;
65092;SDS011;52025;50.288;2.794;2023-08-06T08:33:08;5.72;;;1.30;;
65092;SDS011;52025;50.288;2.794;2023-08-06T08:35:34;5.68;;;1.40;;
65092;SDS011;52025;50.288;2.794;2023-08-06T08:37:59;4.63;;;1.58;;
65092;SDS011;52025;50.288;2.794;2023-08-06T08:40:31;7.75;;;1.70;;
65092;SDS011;52025;50.288;2.794;2023-08-06T08:42:57;3.65;;;1.35;;
65092;SDS011;52025;50.288;2.794;2023-08-06T08:45:22;4.70;;;1.33;;
65092;SDS011;52025;50.288;2.794;2023-08-06T08:47:51;5.05;;;1.50;;
65092;SDS011;52025;50.288;2.794;2023-08-06T08:50:16;3.00;;;1.20;;
65092;SDS011;52025;50.288;2.794;2023-08-06T08:52:43;3.67;;;1.10;;
65092;SDS011;52025;50.288;2.794;2023-08-06T08:55:17;4.80;;;1.50;;
65092;SDS011;52025;50.288;2.794;2023-08-06T08:57:46;5.15;;;1.20;;
65092;SDS011;52025;50.288;2.794;2023-08-06T09:00:11;4.03;;;1.48;;
65092;SDS011;52025;50.288;2.794;2023-08-06T09:02:39;3.22;;;1.00;;
65092;SDS011;52025;50.288;2.794;2023-08-06T09:05:04;5.53;;;1.42;;
65092;SDS011;52025;50.288;2.794;2023-08-06T09:07:38;3.95;;;1.50;;
65092;SDS011;52025;50.288;2.794;2023-08-06T09:10:05;6.25;;;1.10;;
65092;SDS011;52025;50.288;2.794;2023-08-06T09:12:31;3.58;;;1.40;;
65092;SDS011;52025;50.288;2.794;2023-08-06T09:14:57;3.13;;;1.00;;
65092;SDS011;52025;50.288;2.794;2023-08-06T09:17:22;4.90;;;1.40;;
65092;SDS011;52025;50.288;2.794;2023-08-06T09:19:48;3.13;;;1.02;;
65092;SDS011;52025;50.288;2.794;2023-08-06T09:22:16;2.28;;;1.00;;
65092;SDS011;52025;50.288;2.794;2023-08-06T09:24:41;5.78;;;0.95;;
65092;SDS011;52025;50.288;2.794;2023-08-06T09:27:11;4.40;;;1.35;;
65092;SDS011;52025;50.288;2.794;2023-08-06T09:29:44;3.33;;;1.10;;
65092;SDS011;52025;50.288;2.794;2023-08-06T09:32:15;4.15;;;1.27;;
65092;SDS011;52025;50.288;2.794;2023-08-06T09:34:41;3.90;;;1.33;;
65092;SDS011;52025;50.288;2.794;2023-08-06T09:37:08;4.85;;;1.20;;
65092;SDS011;52025;50.288;2.794;2023-08-06T09:39:34;5.95;;;1.20;;
65092;SDS011;52025;50.288;2.794;2023-08-06T09:42:00;4.50;;;1.23;;
65092;SDS011;52025;50.288;2.794;2023-08-06T09:44:31;5.53;;;1.17;;
65092;SDS011;52025;50.288;2.794;2023-08-06T09:47:01;3.30;;;0.95;;
65092;SDS011;52025;50.288;2.794;2023-08-06T09:51:58;5.63;;;1.20;;
65092;SDS011;52025;50.288;2.794;2023-08-06T09:54:25;3.65;;;1.38;;
65092;SDS011;52025;50.288;2.794;2023-08-06T09:56:52;2.92;;;1.30;;
65092;SDS011;52025;50.288;2.794;2023-08-06T09:59:22;2.67;;;0.98;;
65092;SDS011;52025;50.288;2.794;2023-08-06T10:01:53;4.30;;;1.10;;
65092;SDS011;52025;50.288;2.794;2023-08-06T10:04:19;4.93;;;1.17;;
65092;SDS011;52025;50.288;2.794;2023-08-06T10:06:48;2.83;;;0.80;;
65092;SDS011;52025;50.288;2.794;2023-08-06T10:09:14;3.25;;;1.00;;
65092;SDS011;52025;50.288;2.794;2023-08-06T10:11:42;4.15;;;1.10;;
65092;SDS011;52025;50.288;2.794;2023-08-06T10:14:13;1.35;;;0.70;;
65092;SDS011;52025;50.288;2.794;2023-08-06T10:16:40;3.95;;;1.08;;
65092;SDS011;52025;50.288;2.794;2023-08-06T10:19:07;3.67;;;0.90;;
65092;SDS011;52025;50.288;2.794;2023-08-06T10:21:33;4.63;;;1.33;;
65092;SDS011;52025;50.288;2.794;2023-08-06T10:23:59;2.60;;;1.08;;
65092;SDS011;52025;50.288;2.794;2023-08-06T10:26:29;2.38;;;0.80;;
65092;SDS011;52025;50.288;2.794;2023-08-06T10:28:55;4.25;;;0.90;;
65092;SDS011;52025;50.288;2.794;2023-08-06T10:31:31;4.25;;;1.25;;
65092;SDS011;52025;50.288;2.794;2023-08-06T10:34:05;6.43;;;1.35;;
65092;SDS011;52025;50.288;2.794;2023-08-06T10:36:33;3.50;;;1.00;;
65092;SDS011;52025;50.288;2.794;2023-08-06T10:38:58;2.67;;;0.90;;
65092;SDS011;52025;50.288;2.794;2023-08-06T10:41:27;2.55;;;0.95;;
65092;SDS011;52025;50.288;2.794;2023-08-06T10:44:05;4.00;;;1.30;;
65092;SDS011;52025;50.288;2.794;2023-08-06T10:46:33;3.17;;;0.88;;
65092;SDS011;52025;50.288;2.794;2023-08-06T10:48:58;2.35;;;1.02;;
65092;SDS011;52025;50.288;2.794;2023-08-06T10:51:26;2.88;;;1.38;;
65092;SDS011;52025;50.288;2.794;2023-08-06T10:53:52;3.53;;;1.40;;
65092;SDS011;52025;50.288;2.794;2023-08-06T10:56:21;3.22;;;0.90;;
65092;SDS011;52025;50.288;2.794;2023-08-06T10:58:53;3.70;;;1.08;;
65092;SDS011;52025;50.288;2.794;2023-08-06T11:01:18;4.97;;;1.10;;
65092;SDS011;52025;50.288;2.794;2023-08-06T11:03:45;4.97;;;1.50;;
65092;SDS011;52025;50.288;2.794;2023-08-06T11:06:16;4.90;;;1.20;;
65092;SDS011;52025;50.288;2.794;2023-08-06T11:08:46;2.25;;;0.95;;
65092;SDS011;52025;50.288;2.794;2023-08-06T11:11:13;3.55;;;1.05;;
65092;SDS011;52025;50.288;2.794;2023-08-06T11:13:39;3.15;;;1.17;;
65092;SDS011;52025;50.288;2.794;2023-08-06T11:16:05;3.53;;;1.17;;
65092;SDS011;52025;50.288;2.794;2023-08-06T11:18:31;4.13;;;1.38;;
65092;SDS011;52025;50.288;2.794;2023-08-06T11:20:58;3.00;;;1.08;;
65092;SDS011;52025;50.288;2.794;2023-08-06T11:23:25;7.85;;;1.15;;
65092;SDS011;52025;50.288;2.794;2023-08-06T11:25:53;4.47;;;1.42;;
65092;SDS011;52025;50.288;2.794;2023-08-06T11:28:19;2.38;;;0.82;;
65092;SDS011;52025;50.288;2.794;2023-08-06T11:30:49;3.78;;;1.33;;
65092;SDS011;52025;50.288;2.794;2023-08-06T11:33:14;6.15;;;1.42;;
65092;SDS011;52025;50.288;2.794;2023-08-06T11:35:42;4.68;;;1.30;;
65092;SDS011;52025;50.288;2.794;2023-08-06T11:38:11;3.75;;;1.20;;
65092;SDS011;52025;50.288;2.794;2023-08-06T11:40:44;3.03;;;1.00;;
65092;SDS011;52025;50.288;2.794;2023-08-06T11:43:09;3.53;;;1.35;;
65092;SDS011;52025;50.288;2.794;2023-08-06T11:45:37;3.42;;;1.10;;
65092;SDS011;52025;50.288;2.794;2023-08-06T11:48:02;8.93;;;2.13;;
65092;SDS011;52025;50.288;2.794;2023-08-06T11:50:28;4.47;;;1.00;;
65092;SDS011;52025;50.288;2.794;2023-08-06T11:53:00;3.22;;;0.80;;
65092;SDS011;52025;50.288;2.794;2023-08-06T11:55:28;3.85;;;1.10;;
65092;SDS011;52025;50.288;2.794;2023-08-06T11:57:53;3.13;;;0.85;;
65092;SDS011;52025;50.288;2.794;2023-08-06T12:00:22;3.00;;;1.05;;
65092;SDS011;52025;50.288;2.794;2023-08-06T12:02:53;1.77;;;0.75;;
65092;SDS011;52025;50.288;2.794;2023-08-06T12:05:23;2.28;;;0.82;;
65092;SDS011;52025;50.288;2.794;2023-08-06T12:07:53;3.60;;;1.25;;
65092;SDS011;52025;50.288;2.794;2023-08-06T12:10:19;4.40;;;1.20;;
65092;SDS011;52025;50.288;2.794;2023-08-06T12:12:47;2.10;;;0.90;;
65092;SDS011;52025;50.288;2.794;2023-08-06T12:15:13;3.70;;;1.23;;
65092;SDS011;52025;50.288;2.794;2023-08-06T12:17:38;8.48;;;1.30;;
65092;SDS011;52025;50.288;2.794;2023-08-06T12:20:06;4.20;;;0.98;;
65092;SDS011;52025;50.288;2.794;2023-08-06T12:22:32;4.60;;;1.15;;
65092;SDS011;52025;50.288;2.794;2023-08-06T12:25:03;4.72;;;1.52;;
65092;SDS011;52025;50.288;2.794;2023-08-06T12:27:31;1.85;;;0.82;;
65092;SDS011;52025;50.288;2.794;2023-08-06T12:29:57;2.95;;;0.88;;
65092;SDS011;52025;50.288;2.794;2023-08-06T12:32:22;2.15;;;0.85;;
65092;SDS011;52025;50.288;2.794;2023-08-06T12:34:48;5.15;;;0.80;;
65092;SDS011;52025;50.288;2.794;2023-08-06T12:37:15;4.50;;;1.02;;
65092;SDS011;52025;50.288;2.794;2023-08-06T12:39:41;1.90;;;0.98;;
65092;SDS011;52025;50.288;2.794;2023-08-06T12:42:09;3.05;;;1.20;;
65092;SDS011;52025;50.288;2.794;2023-08-06T12:44:38;3.40;;;0.80;;
65092;SDS011;52025;50.288;2.794;2023-08-06T12:47:12;7.10;;;0.90;;
65092;SDS011;52025;50.288;2.794;2023-08-06T12:49:40;2.78;;;0.95;;
65092;SDS011;52025;50.288;2.794;2023-08-06T12:52:11;2.00;;;0.75;;
65092;SDS011;52025;50.288;2.794;2023-08-06T12:54:40;2.47;;;1.00;;
65092;SDS011;52025;50.288;2.794;2023-08-06T12:57:08;3.25;;;0.80;;
65092;SDS011;52025;50.288;2.794;2023-08-06T12:59:33;2.63;;;0.85;;
65092;SDS011;52025;50.288;2.794;2023-08-06T13:01:59;3.88;;;1.20;;
65092;SDS011;52025;50.288;2.794;2023-08-06T13:04:27;6.10;;;1.00;;
65092;SDS011;52025;50.288;2.794;2023-08-06T13:06:55;2.85;;;0.80;;
65092;SDS011;52025;50.288;2.794;2023-08-06T13:09:24;3.60;;;1.10;;
65092;SDS011;52025;50.288;2.794;2023-08-06T13:11:51;3.53;;;1.05;;
65092;SDS011;52025;50.288;2.794;2023-08-06T13:14:18;1.90;;;0.77;;
65092;SDS011;52025;50.288;2.794;2023-08-06T13:16:46;4.03;;;1.38;;
65092;SDS011;52025;50.288;2.794;2023-08-06T13:19:16;3.35;;;0.93;;
65092;SDS011;52025;50.288;2.794;2023-08-06T13:24:09;3.85;;;1.33;;
65092;SDS011;52025;50.288;2.794;2023-08-06T13:26:38;2.08;;;0.90;;
65092;SDS011;52025;50.288;2.794;2023-08-06T13:29:03;5.22;;;1.20;;
65092;SDS011;52025;50.288;2.794;2023-08-06T13:31:29;2.45;;;0.95;;
65092;SDS011;52025;50.288;2.794;2023-08-06T13:33:57;3.42;;;1.10;;
65092;SDS011;52025;50.288;2.794;2023-08-06T13:36:28;2.38;;;0.73;;
65092;SDS011;52025;50.288;2.794;2023-08-06T13:38:54;2.03;;;0.70;;
65092;SDS011;52025;50.288;2.794;2023-08-06T13:41:19;3.08;;;0.80;;
65092;SDS011;52025;50.288;2.794;2023-08-06T13:43:45;0.68;;;0.50;;
65092;SDS011;52025;50.288;2.794;2023-08-06T13:46:10;2.63;;;1.10;;
65092;SDS011;52025;50.288;2.794;2023-08-06T13:48:41;5.88;;;1.00;;
65092;SDS011;52025;50.288;2.794;2023-08-06T13:51:06;4.28;;;1.48;;
65092;SDS011;52025;50.288;2.794;2023-08-06T13:53:34;2.78;;;1.13;;
65092;SDS011;52025;50.288;2.794;2023-08-06T13:56:08;3.03;;;1.00;;
65092;SDS011;52025;50.288;2.794;2023-08-06T13:58:37;3.45;;;1.05;;
65092;SDS011;52025;50.288;2.794;2023-08-06T14:01:02;4.13;;;0.90;;
65092;SDS011;52025;50.288;2.794;2023-08-06T14:03:28;4.32;;;1.10;;
65092;SDS011;52025;50.288;2.794;2023-08-06T14:05:53;3.13;;;1.00;;
65092;SDS011;52025;50.288;2.794;2023-08-06T14:08:24;3.17;;;1.00;;
65092;SDS011;52025;50.288;2.794;2023-08-06T14:10:50;3.92;;;1.10;;
65092;SDS011;52025;50.288;2.794;2023-08-06T14:13:22;3.13;;;1.00;;
65092;SDS011;52025;50.288;2.794;2023-08-06T14:15:56;3.10;;;0.98;;
65092;SDS011;52025;50.288;2.794;2023-08-06T14:18:24;2.90;;;1.08;;
65092;SDS011;52025;50.288;2.794;2023-08-06T14:21:12;7.03;;;1.50;;
65092;SDS011;52025;50.288;2.794;2023-08-06T14:23:46;5.78;;;1.40;;
65092;SDS011;52025;50.288;2.794;2023-08-06T14:26:21;3.55;;;1.35;;
65092;SDS011;52025;50.288;2.794;2023-08-06T14:28:55;5.03;;;1.35;;
65092;SDS011;52025;50.288;2.794;2023-08-06T14:50:32;3.13;;;1.10;;
65092;SDS011;52025;50.288;2.794;2023-08-06T14:53:02;2.60;;;1.17;;
65092;SDS011;52025;50.288;2.794;2023-08-06T14:55:28;1.92;;;0.90;;
65092;SDS011;52025;50.288;2.794;2023-08-06T14:58:05;2.78;;;1.13;;
65092;SDS011;52025;50.288;2.794;2023-08-06T15:00:30;4.38;;;1.30;;
65092;SDS011;52025;50.288;2.794;2023-08-06T15:02:57;3.67;;;1.38;;
65092;SDS011;52025;50.288;2.794;2023-08-06T15:05:24;4.53;;;1.08;;
65092;SDS011;52025;50.288;2.794;2023-08-06T15:07:49;7.38;;;1.63;;
65092;SDS011;52025;50.288;2.794;2023-08-06T15:10:14;7.40;;;2.10;;
65092;SDS011;52025;50.288;2.794;2023-08-06T15:12:40;5.07;;;1.67;;
65092;SDS011;52025;50.288;2.794;2023-08-06T15:15:06;5.18;;;1.60;;
65092;SDS011;52025;50.288;2.794;2023-08-06T15:17:32;5.15;;;1.60;;
65092;SDS011;52025;50.288;2.794;2023-08-06T15:19:57;5.65;;;1.77;;